Terminal Aerodrome Forecast
Issued by NWS Flagstaff, AZ

Home | Current Version | Previous Version | Text Only | Print | Product List | Glossary On
Versions: 1 2 3 4 5 6 7 8 9 10 11 12
000
FTUS45 KFGZ 302340
TAFFLG
TAF
KFLG 302340Z 3100/3124 07010KT P6SM VCTS SCT080 BKN110CB
      TEMPO 3100/3102 VRB10G17KT 5SM -TSRA SCT040 BKN080CB
     FM310200 VRB03KT P6SM SCT110 BKN200
     FM311800 24009KT P6SM SCT090 BKN110
      TEMPO 3120/3124 VRB10G20KT -TSRA SCT045 BKN090CB=

USA.gov is the U.S. government's official web portal to all federal, state and local government web resources and services.